Dogue, VA

6:07 PM EST on March 05, 2015 (GMT -0500)
Dogue | Change Station
CLOSE
Current Station
Personal Weather Station
Location: King George, VA
Elevation: 110 ft
Nearby Weather Stations
Active Advisory: Winter Storm Warning Active Notice: Public Information Statement

Elev 110 ft 38.21 °N, 77.17 °W | Updated 1 second ago

Snow
Snow
26.0 °F
Feels Like 26 °F
N
0.0
Wind Variable Wind from West

Today
High -- | Low -- °F
--% Chance of Precip.
Yesterday
High -- | Low -- °F
Precip. -- in
6:35 AM 6:05 PM
Full, 100% visible
Pressure 30.26 in
Visibility 10.0 miles
Clouds Scattered Clouds 1600 ft
Scattered Clouds 2200 ft
Overcast 3600 ft
Windchill 26 °F
Dew Point 25 °F
Humidity 96%
Rainfall in
Snow Depth Not available.
UV 0 out of 12
Pollen .70 out of 12
Air Quality Not available.
Flu Activity Not available.
METAR KEZF 052255Z AUTO 33008KT 10SM -SN SCT016 SCT022 OVC036 M02/M03 A3026 RMK AO2 T10251033

More Conditions Fewer Conditions

Pressure 30.26 in
Visibility 10.0 miles
Clouds Scattered Clouds 1600 ft
Scattered Clouds 2200 ft
Overcast 3600 ft
Windchill 26 °F
Dew Point 25 °F
Humidity 96%
Rainfall in
Snow Depth Not available.
UV 0 out of 12
Pollen .70 out of 12
Air Quality Not available.
Flu Activity Not available.
METAR KEZF 052255Z AUTO 33008KT 10SM -SN SCT016 SCT022 OVC036 M02/M03 A3026 RMK AO2 T10251033

More Conditions Fewer Conditions

10-Day Weather Forecast

Almanac

Astronomy

Mar. 05, 2015 Rise Set
Actual Time
Civil Twilight
Nautical Twilight
Astronomical Twilight
Moon
Length of Visible Light
Length of Day
Tomorrow will be .
, % of the Moon is Illuminated

Today's Extremes

State Highs State Lows

Community

WunderPhotos

Upload Photos

1,803,036 photos uploaded!

WunderBlogs® & News

Nearby

Air Quality

  Air Quality AQ Index Pollutant
Not available.

Snow Depth

Station Depth Elevation

Earthquake Activity

City Distance Mag. Time & Date
Minimum magnitude displayed is 2.5.

Coastal Water Temperatures

Place Temperature

Nearby Weather Stations

Winter Storm Warning
Statement as of 3:58 PM EST on March 05, 2015

... Winter Storm Warning remains in effect until 10 PM EST this
evening...

* precipitation types... snow... heavy at times.

* Accumulations... 4 to 8 inches of snow.

* Timing... snow will be heavy at times for the remainder of the
afternoon. Snow will end between 8 PM and 10 PM this evening.

* Temperatures... falling through the 20s late this afternoon and
evening.

* Winds... north 10 to 15 mph with gusts to 20 mph.

* Impacts... roads will remain snow covered and slippery.
Visibility will be reduced one-quarter mile at times... making
traveling dangerous.

Precautionary/preparedness actions...

A Winter Storm Warning for heavy snow means severe winter weather
conditions are expected or occurring. Significant amounts of snow
are forecast that will make travel dangerous. Only travel in an
emergency. If you must travel... keep an extra flashlight...
food... and water in your vehicle in case of an emergency.